sensor_id;sensor_type;location;lat;lon;timestamp;pressure;altitude;pressure_sealevel;temperature;humidity
11648;BME280;5880;52.342;9.662;2023-09-12T00:01:25;100616.91;;;27.58;48.76
11648;BME280;5880;52.342;9.662;2023-09-12T00:03:51;100646.94;;;27.58;48.76
11648;BME280;5880;52.342;9.662;2023-09-12T00:06:16;100664.16;;;27.56;48.82
11648;BME280;5880;52.342;9.662;2023-09-12T00:08:42;100670.47;;;27.53;48.62
11648;BME280;5880;52.342;9.662;2023-09-12T00:11:10;100662.03;;;27.53;48.83
11648;BME280;5880;52.342;9.662;2023-09-12T00:13:41;100639.13;;;27.51;48.68
11648;BME280;5880;52.342;9.662;2023-09-12T00:16:07;100615.72;;;27.47;48.81
11648;BME280;5880;52.342;9.662;2023-09-12T00:18:39;100627.41;;;27.49;49.02
11648;BME280;5880;52.342;9.662;2023-09-12T00:21:05;100620.84;;;27.45;49.03
11648;BME280;5880;52.342;9.662;2023-09-12T00:23:31;100614.41;;;27.45;49.01
11648;BME280;5880;52.342;9.662;2023-09-12T00:25:57;100612.28;;;27.42;48.99
11648;BME280;5880;52.342;9.662;2023-09-12T00:28:23;100617.22;;;27.45;48.83
11648;BME280;5880;52.342;9.662;2023-09-12T00:30:51;100596.63;;;27.41;49.02
11648;BME280;5880;52.342;9.662;2023-09-12T00:33:17;100591.84;;;27.41;49.22
11648;BME280;5880;52.342;9.662;2023-09-12T00:35:44;100587.50;;;27.44;48.87
11648;BME280;5880;52.342;9.662;2023-09-12T00:38:10;100589.03;;;27.41;49.15
11648;BME280;5880;52.342;9.662;2023-09-12T00:40:36;100592.19;;;27.40;48.98
11648;BME280;5880;52.342;9.662;2023-09-12T00:43:03;100588.56;;;27.39;49.05
11648;BME280;5880;52.342;9.662;2023-09-12T00:45:29;100575.56;;;27.34;49.15
11648;BME280;5880;52.342;9.662;2023-09-12T00:47:58;100570.44;;;27.36;49.23
11648;BME280;5880;52.342;9.662;2023-09-12T00:50:25;100569.13;;;27.34;49.07
11648;BME280;5880;52.342;9.662;2023-09-12T00:52:54;100560.47;;;27.27;49.11
11648;BME280;5880;52.342;9.662;2023-09-12T00:55:20;100559.66;;;27.26;49.00
11648;BME280;5880;52.342;9.662;2023-09-12T00:57:47;100564.94;;;27.28;49.04
11648;BME280;5880;52.342;9.662;2023-09-12T01:00:13;100567.25;;;27.26;49.18
11648;BME280;5880;52.342;9.662;2023-09-12T01:02:41;100560.38;;;27.23;49.24
11648;BME280;5880;52.342;9.662;2023-09-12T01:05:09;100553.91;;;27.23;49.59
11648;BME280;5880;52.342;9.662;2023-09-12T01:07:37;100554.59;;;27.20;49.11
11648;BME280;5880;52.342;9.662;2023-09-12T01:10:07;100555.63;;;27.15;49.16
11648;BME280;5880;52.342;9.662;2023-09-12T01:12:33;100562.75;;;27.12;49.36
11648;BME280;5880;52.342;9.662;2023-09-12T01:14:59;100555.69;;;27.06;49.25
11648;BME280;5880;52.342;9.662;2023-09-12T01:17:26;100557.84;;;27.09;49.23
11648;BME280;5880;52.342;9.662;2023-09-12T01:19:52;100557.00;;;27.09;49.31
11648;BME280;5880;52.342;9.662;2023-09-12T01:26:05;100562.22;;;26.98;48.88
11648;BME280;5880;52.342;9.662;2023-09-12T01:28:40;100566.88;;;26.94;49.07
11648;BME280;5880;52.342;9.662;2023-09-12T01:31:09;100564.63;;;26.87;49.17
11648;BME280;5880;52.342;9.662;2023-09-12T01:33:35;100579.00;;;26.86;49.27
11648;BME280;5880;52.342;9.662;2023-09-12T01:36:01;100565.53;;;26.79;49.04
11648;BME280;5880;52.342;9.662;2023-09-12T01:38:27;100572.44;;;26.82;48.99
11648;BME280;5880;52.342;9.662;2023-09-12T01:40:55;100563.06;;;26.78;49.33
11648;BME280;5880;52.342;9.662;2023-09-12T01:43:24;100574.63;;;26.76;49.48
11648;BME280;5880;52.342;9.662;2023-09-12T01:45:55;100570.88;;;26.72;49.13
11648;BME280;5880;52.342;9.662;2023-09-12T01:48:26;100584.41;;;26.70;49.18
11648;BME280;5880;52.342;9.662;2023-09-12T01:50:56;100570.94;;;26.63;49.41
11648;BME280;5880;52.342;9.662;2023-09-12T01:53:22;100577.84;;;26.66;49.51
11648;BME280;5880;52.342;9.662;2023-09-12T01:55:49;100579.69;;;26.62;49.60
11648;BME280;5880;52.342;9.662;2023-09-12T01:58:15;100575.25;;;26.61;49.80
11648;BME280;5880;52.342;9.662;2023-09-12T02:00:41;100584.81;;;26.60;49.61
11648;BME280;5880;52.342;9.662;2023-09-12T02:03:07;100583.19;;;26.59;49.84
11648;BME280;5880;52.342;9.662;2023-09-12T02:05:33;100581.41;;;26.54;49.89
11648;BME280;5880;52.342;9.662;2023-09-12T02:07:58;100591.63;;;26.50;49.67
11648;BME280;5880;52.342;9.662;2023-09-12T02:10:27;100596.91;;;26.51;49.67
11648;BME280;5880;52.342;9.662;2023-09-12T02:12:53;100605.16;;;26.48;49.96
11648;BME280;5880;52.342;9.662;2023-09-12T02:15:19;100609.13;;;26.47;50.01
11648;BME280;5880;52.342;9.662;2023-09-12T02:17:44;100613.09;;;26.46;50.02
11648;BME280;5880;52.342;9.662;2023-09-12T02:20:10;100612.13;;;26.42;49.83
11648;BME280;5880;52.342;9.662;2023-09-12T02:22:37;100610.94;;;26.43;49.93
11648;BME280;5880;52.342;9.662;2023-09-12T02:25:05;100617.38;;;26.43;50.07
11648;BME280;5880;52.342;9.662;2023-09-12T02:27:31;100632.56;;;26.42;49.88
11648;BME280;5880;52.342;9.662;2023-09-12T02:29:56;100644.44;;;26.39;49.99
11648;BME280;5880;52.342;9.662;2023-09-12T02:32:22;100643.16;;;26.37;50.20
11648;BME280;5880;52.342;9.662;2023-09-12T02:34:48;100658.09;;;26.41;50.31
11648;BME280;5880;52.342;9.662;2023-09-12T02:37:13;100655.28;;;26.41;50.40
11648;BME280;5880;52.342;9.662;2023-09-12T02:39:41;100655.66;;;26.39;50.56
11648;BME280;5880;52.342;9.662;2023-09-12T02:42:06;100655.28;;;26.41;50.80
11648;BME280;5880;52.342;9.662;2023-09-12T02:44:32;100647.09;;;26.36;50.99
11648;BME280;5880;52.342;9.662;2023-09-12T02:46:58;100641.97;;;26.38;50.96
11648;BME280;5880;52.342;9.662;2023-09-12T02:49:23;100651.84;;;26.44;50.77
11648;BME280;5880;52.342;9.662;2023-09-12T02:51:49;100642.59;;;26.43;50.87
11648;BME280;5880;52.342;9.662;2023-09-12T02:54:15;100651.84;;;26.44;51.12
11648;BME280;5880;52.342;9.662;2023-09-12T02:56:40;100643.44;;;26.44;50.89
11648;BME280;5880;52.342;9.662;2023-09-12T02:59:06;100644.25;;;26.44;50.94
11648;BME280;5880;52.342;9.662;2023-09-12T03:01:32;100651.16;;;26.47;50.99
11648;BME280;5880;52.342;9.662;2023-09-12T03:03:58;100641.56;;;26.48;50.79
11648;BME280;5880;52.342;9.662;2023-09-12T03:06:23;100615.53;;;26.47;51.14
11648;BME280;5880;52.342;9.662;2023-09-12T03:08:50;100605.50;;;26.46;50.85
11648;BME280;5880;52.342;9.662;2023-09-12T03:11:15;100605.84;;;26.45;50.88
11648;BME280;5880;52.342;9.662;2023-09-12T03:13:42;100610.28;;;26.46;51.11
11648;BME280;5880;52.342;9.662;2023-09-12T03:16:14;100611.94;;;26.47;51.09
11648;BME280;5880;52.342;9.662;2023-09-12T03:18:40;100619.50;;;26.46;50.84
11648;BME280;5880;52.342;9.662;2023-09-12T03:21:06;100618.69;;;26.46;51.00
11648;BME280;5880;52.342;9.662;2023-09-12T03:23:32;100630.25;;;26.44;51.14
11648;BME280;5880;52.342;9.662;2023-09-12T03:26:05;100632.56;;;26.42;50.75
11648;BME280;5880;52.342;9.662;2023-09-12T03:28:32;100633.72;;;26.41;51.07
11648;BME280;5880;52.342;9.662;2023-09-12T03:31:13;100637.47;;;26.45;50.94
11648;BME280;5880;52.342;9.662;2023-09-12T03:33:40;100657.78;;;26.42;50.98
11648;BME280;5880;52.342;9.662;2023-09-12T03:36:07;100681.00;;;26.43;50.73
11648;BME280;5880;52.342;9.662;2023-09-12T03:38:34;100700.81;;;26.38;51.14
11648;BME280;5880;52.342;9.662;2023-09-12T03:41:00;100710.03;;;26.38;50.96
11648;BME280;5880;52.342;9.662;2023-09-12T03:43:27;100707.44;;;26.33;51.20
11648;BME280;5880;52.342;9.662;2023-09-12T03:45:53;100713.03;;;26.33;51.35
11648;BME280;5880;52.342;9.662;2023-09-12T03:48:19;100706.75;;;26.36;51.06
11648;BME280;5880;52.342;9.662;2023-09-12T03:50:45;100708.59;;;26.32;51.18
11648;BME280;5880;52.342;9.662;2023-09-12T03:53:11;100693.63;;;26.28;51.31
11648;BME280;5880;52.342;9.662;2023-09-12T03:55:37;100694.44;;;26.28;51.44
11648;BME280;5880;52.342;9.662;2023-09-12T03:58:03;100697.91;;;26.25;51.58
11648;BME280;5880;52.342;9.662;2023-09-12T04:00:29;100723.63;;;26.27;51.91
11648;BME280;5880;52.342;9.662;2023-09-12T04:02:54;100717.84;;;26.24;51.68
11648;BME280;5880;52.342;9.662;2023-09-12T04:05:20;100711.56;;;26.27;51.79
11648;BME280;5880;52.342;9.662;2023-09-12T04:07:46;100687.03;;;26.24;52.02
11648;BME280;5880;52.342;9.662;2023-09-12T04:10:11;100650.13;;;26.22;51.99
11648;BME280;5880;52.342;9.662;2023-09-12T04:12:37;100636.63;;;26.24;52.19
11648;BME280;5880;52.342;9.662;2023-09-12T04:15:03;100629.72;;;26.21;51.84
11648;BME280;5880;52.342;9.662;2023-09-12T04:17:29;100634.00;;;26.19;52.16
11648;BME280;5880;52.342;9.662;2023-09-12T04:19:54;100640.31;;;26.16;52.30
11648;BME280;5880;52.342;9.662;2023-09-12T04:22:20;100644.72;;;26.17;52.08
11648;BME280;5880;52.342;9.662;2023-09-12T04:24:46;100636.00;;;26.18;51.98
11648;BME280;5880;52.342;9.662;2023-09-12T04:27:11;100623.63;;;26.19;52.05
11648;BME280;5880;52.342;9.662;2023-09-12T04:29:37;100621.50;;;26.16;52.28
11648;BME280;5880;52.342;9.662;2023-09-12T04:32:04;100625.44;;;26.15;51.93
11648;BME280;5880;52.342;9.662;2023-09-12T04:34:30;100615.09;;;26.16;52.04
11648;BME280;5880;52.342;9.662;2023-09-12T04:36:56;100617.91;;;26.16;52.29
11648;BME280;5880;52.342;9.662;2023-09-12T04:39:22;100611.44;;;26.15;51.92
11648;BME280;5880;52.342;9.662;2023-09-12T04:41:48;100606.34;;;26.17;52.09
11648;BME280;5880;52.342;9.662;2023-09-12T04:44:13;100604.72;;;26.16;52.12
11648;BME280;5880;52.342;9.662;2023-09-12T04:46:39;100609.34;;;26.12;52.03
11648;BME280;5880;52.342;9.662;2023-09-12T04:49:04;100625.13;;;26.17;52.02
11648;BME280;5880;52.342;9.662;2023-09-12T04:51:30;100615.41;;;26.14;52.08
11648;BME280;5880;52.342;9.662;2023-09-12T04:53:56;100609.50;;;26.16;51.99
11648;BME280;5880;52.342;9.662;2023-09-12T04:56:22;100600.72;;;26.17;51.97
11648;BME280;5880;52.342;9.662;2023-09-12T04:58:50;100595.81;;;26.14;51.98
11648;BME280;5880;52.342;9.662;2023-09-12T05:01:16;100591.03;;;26.15;52.24
11648;BME280;5880;52.342;9.662;2023-09-12T05:03:42;100597.44;;;26.15;52.15
11648;BME280;5880;52.342;9.662;2023-09-12T05:06:10;100613.59;;;26.18;51.90
11648;BME280;5880;52.342;9.662;2023-09-12T05:08:35;100628.41;;;26.19;52.07
11648;BME280;5880;52.342;9.662;2023-09-12T05:11:01;100630.25;;;26.15;51.91
11648;BME280;5880;52.342;9.662;2023-09-12T05:13:28;100648.84;;;26.19;52.02
11648;BME280;5880;52.342;9.662;2023-09-12T05:15:55;100653.00;;;26.13;51.83
11648;BME280;5880;52.342;9.662;2023-09-12T05:18:22;100673.91;;;26.16;51.76
11648;BME280;5880;52.342;9.662;2023-09-12T05:20:47;100673.75;;;26.12;52.13
11648;BME280;5880;52.342;9.662;2023-09-12T05:23:13;100679.22;;;26.08;51.70
11648;BME280;5880;52.342;9.662;2023-09-12T05:25:39;100693.66;;;26.10;52.05
11648;BME280;5880;52.342;9.662;2023-09-12T05:28:05;100687.25;;;26.10;52.16
11648;BME280;5880;52.342;9.662;2023-09-12T05:30:31;100687.13;;;26.06;52.03
11648;BME280;5880;52.342;9.662;2023-09-12T05:32:56;100687.44;;;26.05;51.98
11648;BME280;5880;52.342;9.662;2023-09-12T05:35:22;100688.25;;;26.05;52.12
11648;BME280;5880;52.342;9.662;2023-09-12T05:37:48;100702.44;;;26.09;52.03
11648;BME280;5880;52.342;9.662;2023-09-12T05:40:13;100701.63;;;26.08;52.29
11648;BME280;5880;52.342;9.662;2023-09-12T05:42:39;100711.03;;;26.04;51.98
11648;BME280;5880;52.342;9.662;2023-09-12T05:45:06;100716.75;;;26.07;51.73
11648;BME280;5880;52.342;9.662;2023-09-12T05:47:32;100707.72;;;26.02;52.33
11648;BME280;5880;52.342;9.662;2023-09-12T05:49:58;100719.75;;;26.02;52.29
11648;BME280;5880;52.342;9.662;2023-09-12T05:52:26;100714.66;;;25.96;52.17
11648;BME280;5880;52.342;9.662;2023-09-12T05:54:51;100726.03;;;25.90;52.44
11648;BME280;5880;52.342;9.662;2023-09-12T05:57:17;100730.81;;;25.81;52.14
11648;BME280;5880;52.342;9.662;2023-09-12T05:59:43;100740.53;;;25.75;52.38
11648;BME280;5880;52.342;9.662;2023-09-12T06:02:09;100754.69;;;25.70;52.38
11648;BME280;5880;52.342;9.662;2023-09-12T06:04:36;100720.16;;;25.57;52.05
11648;BME280;5880;52.342;9.662;2023-09-12T06:07:02;100711.44;;;25.50;52.25
11648;BME280;5880;52.342;9.662;2023-09-12T06:09:29;100724.28;;;25.42;52.62
11648;BME280;5880;52.342;9.662;2023-09-12T06:11:54;100719.03;;;25.32;52.03
11648;BME280;5880;52.342;9.662;2023-09-12T06:14:20;100715.72;;;25.21;51.92
11648;BME280;5880;52.342;9.662;2023-09-12T06:16:46;100709.13;;;25.09;52.49
11648;BME280;5880;52.342;9.662;2023-09-12T06:19:12;100691.34;;;24.96;52.63
11648;BME280;5880;52.342;9.662;2023-09-12T06:21:38;100689.38;;;24.88;52.84
11648;BME280;5880;52.342;9.662;2023-09-12T06:24:14;100680.16;;;24.87;52.82
11648;BME280;5880;52.342;9.662;2023-09-12T06:26:40;100670.78;;;24.83;53.17
11648;BME280;5880;52.342;9.662;2023-09-12T06:29:06;100673.75;;;24.78;53.78
11648;BME280;5880;52.342;9.662;2023-09-12T06:31:33;100672.75;;;24.74;54.77
11648;BME280;5880;52.342;9.662;2023-09-12T06:33:59;100670.13;;;24.69;55.54
11648;BME280;5880;52.342;9.662;2023-09-12T06:36:25;100653.84;;;24.71;56.10
11648;BME280;5880;52.342;9.662;2023-09-12T06:38:52;100652.03;;;24.66;56.12
11648;BME280;5880;52.342;9.662;2023-09-12T06:41:21;100661.41;;;24.61;56.43
11648;BME280;5880;52.342;9.662;2023-09-12T06:43:47;100665.66;;;24.59;56.92
11648;BME280;5880;52.342;9.662;2023-09-12T06:46:13;100669.13;;;24.64;57.34
11648;BME280;5880;52.342;9.662;2023-09-12T06:48:39;100658.91;;;24.60;57.29
11648;BME280;5880;52.342;9.662;2023-09-12T06:51:08;100648.44;;;24.66;57.63
11648;BME280;5880;52.342;9.662;2023-09-12T06:53:35;100638.06;;;24.66;57.63
11648;BME280;5880;52.342;9.662;2023-09-12T06:56:03;100609.31;;;24.66;57.60
11648;BME280;5880;52.342;9.662;2023-09-12T06:58:29;100597.28;;;24.65;57.48
11648;BME280;5880;52.342;9.662;2023-09-12T07:00:55;100595.50;;;24.69;57.55
11648;BME280;5880;52.342;9.662;2023-09-12T07:03:20;100597.63;;;24.72;57.76
11648;BME280;5880;52.342;9.662;2023-09-12T07:05:46;100592.53;;;24.74;57.79
11648;BME280;5880;52.342;9.662;2023-09-12T07:08:14;100589.91;;;24.78;57.83
11648;BME280;5880;52.342;9.662;2023-09-12T07:10:45;100600.91;;;24.83;58.11
11648;BME280;5880;52.342;9.662;2023-09-12T07:13:11;100591.88;;;24.86;57.92
11648;BME280;5880;52.342;9.662;2023-09-12T07:15:37;100581.19;;;24.88;58.02
11648;BME280;5880;52.342;9.662;2023-09-12T07:18:03;100567.22;;;24.88;58.04
11648;BME280;5880;52.342;9.662;2023-09-12T07:20:30;100567.38;;;24.92;58.12
11648;BME280;5880;52.342;9.662;2023-09-12T07:22:56;100550.59;;;24.92;58.10
11648;BME280;5880;52.342;9.662;2023-09-12T07:25:22;100556.34;;;24.95;57.96
11648;BME280;5880;52.342;9.662;2023-09-12T07:27:52;100567.03;;;25.02;57.86
11648;BME280;5880;52.342;9.662;2023-09-12T07:30:18;100572.28;;;25.03;58.35
11648;BME280;5880;52.342;9.662;2023-09-12T07:32:44;100582.66;;;25.03;58.48
11648;BME280;5880;52.342;9.662;2023-09-12T07:35:10;100600.88;;;25.09;58.16
11648;BME280;5880;52.342;9.662;2023-09-12T07:37:36;100615.19;;;25.16;58.63
11648;BME280;5880;52.342;9.662;2023-09-12T07:40:02;100619.31;;;25.19;58.28
11648;BME280;5880;52.342;9.662;2023-09-12T07:42:35;100629.53;;;25.23;58.43
11648;BME280;5880;52.342;9.662;2023-09-12T07:45:02;100631.31;;;25.28;58.46
11648;BME280;5880;52.342;9.662;2023-09-12T07:47:28;100610.63;;;25.29;58.46
11648;BME280;5880;52.342;9.662;2023-09-12T07:49:54;100605.97;;;25.33;58.70
11648;BME280;5880;52.342;9.662;2023-09-12T07:52:20;100599.56;;;25.41;58.59
11648;BME280;5880;52.342;9.662;2023-09-12T07:54:46;100595.44;;;25.47;58.56
11648;BME280;5880;52.342;9.662;2023-09-12T07:57:12;100603.97;;;25.51;58.53
11648;BME280;5880;52.342;9.662;2023-09-12T07:59:37;100624.50;;;25.64;58.74
11648;BME280;5880;52.342;9.662;2023-09-12T08:02:03;100632.72;;;25.69;58.67
11648;BME280;5880;52.342;9.662;2023-09-12T08:04:29;100674.66;;;25.78;58.28
11648;BME280;5880;52.342;9.662;2023-09-12T08:06:55;100684.53;;;25.84;58.59
11648;BME280;5880;52.342;9.662;2023-09-12T08:09:20;100697.88;;;25.87;58.09
11648;BME280;5880;52.342;9.662;2023-09-12T08:11:46;100717.97;;;25.89;58.60
11648;BME280;5880;52.342;9.662;2023-09-12T08:14:12;100738.72;;;25.97;58.50
11648;BME280;5880;52.342;9.662;2023-09-12T08:16:37;100747.25;;;26.00;58.29
11648;BME280;5880;52.342;9.662;2023-09-12T08:19:04;100754.84;;;26.00;57.92
11648;BME280;5880;52.342;9.662;2023-09-12T08:21:29;100752.66;;;26.05;57.99
11648;BME280;5880;52.342;9.662;2023-09-12T08:23:55;100757.47;;;26.05;57.91
11648;BME280;5880;52.342;9.662;2023-09-12T08:26:21;100769.63;;;26.09;57.89
11648;BME280;5880;52.342;9.662;2023-09-12T08:28:47;100772.44;;;26.09;57.90
11648;BME280;5880;52.342;9.662;2023-09-12T08:31:12;100778.69;;;26.15;58.08
11648;BME280;5880;52.342;9.662;2023-09-12T08:33:38;100779.16;;;26.17;58.15
11648;BME280;5880;52.342;9.662;2023-09-12T08:36:04;100786.56;;;26.21;58.27
11648;BME280;5880;52.342;9.662;2023-09-12T08:38:29;100776.53;;;26.20;58.06
11648;BME280;5880;52.342;9.662;2023-09-12T08:40:55;100766.97;;;26.21;58.25
11648;BME280;5880;52.342;9.662;2023-09-12T08:43:22;100783.44;;;26.23;57.78
11648;BME280;5880;52.342;9.662;2023-09-12T08:45:49;100783.44;;;26.23;57.66
11648;BME280;5880;52.342;9.662;2023-09-12T08:48:16;100786.25;;;26.23;57.58
11648;BME280;5880;52.342;9.662;2023-09-12T08:50:43;100776.84;;;26.19;57.27
11648;BME280;5880;52.342;9.662;2023-09-12T08:53:10;100790.53;;;26.20;57.25
11648;BME280;5880;52.342;9.662;2023-09-12T08:55:36;100783.47;;;26.14;57.02
11648;BME280;5880;52.342;9.662;2023-09-12T08:58:04;100787.75;;;26.11;57.46
11648;BME280;5880;52.342;9.662;2023-09-12T09:00:30;100798.63;;;26.13;57.15
11648;BME280;5880;52.342;9.662;2023-09-12T09:02:57;100815.09;;;26.15;56.95
11648;BME280;5880;52.342;9.662;2023-09-12T09:05:24;100821.84;;;26.14;57.07
11648;BME280;5880;52.342;9.662;2023-09-12T09:07:51;100825.28;;;26.10;56.88
11648;BME280;5880;52.342;9.662;2023-09-12T09:10:19;100824.84;;;26.08;56.77
11648;BME280;5880;52.342;9.662;2023-09-12T09:12:46;100833.72;;;26.02;56.92
11648;BME280;5880;52.342;9.662;2023-09-12T09:15:23;100840.97;;;26.03;56.55
11648;BME280;5880;52.342;9.662;2023-09-12T09:17:51;100838.03;;;25.99;56.62
11648;BME280;5880;52.342;9.662;2023-09-12T09:20:32;100820.72;;;25.97;56.42
11648;BME280;5880;52.342;9.662;2023-09-12T09:23:03;100844.44;;;25.91;56.10
11648;BME280;5880;52.342;9.662;2023-09-12T09:25:37;100898.63;;;25.86;55.97
11648;BME280;5880;52.342;9.662;2023-09-12T09:28:15;100884.28;;;25.79;56.20
11648;BME280;5880;52.342;9.662;2023-09-12T09:30:46;100837.66;;;25.75;56.65
11648;BME280;5880;52.342;9.662;2023-09-12T09:33:13;100846.56;;;25.68;56.23
11648;BME280;5880;52.342;9.662;2023-09-12T09:35:47;100864.84;;;25.65;56.16
11648;BME280;5880;52.342;9.662;2023-09-12T09:38:14;100809.84;;;25.61;56.66
11648;BME280;5880;52.342;9.662;2023-09-12T09:40:43;100801.63;;;25.56;56.26
11648;BME280;5880;52.342;9.662;2023-09-12T09:43:09;100829.47;;;25.52;56.42
11648;BME280;5880;52.342;9.662;2023-09-12T09:45:46;100836.84;;;25.48;56.31
11648;BME280;5880;52.342;9.662;2023-09-12T09:48:24;100803.44;;;25.43;56.58
11648;BME280;5880;52.342;9.662;2023-09-12T09:50:53;100829.59;;;25.38;56.68
11648;BME280;5880;52.342;9.662;2023-09-12T09:53:26;100856.59;;;25.34;56.16
11648;BME280;5880;52.342;9.662;2023-09-12T09:55:52;100829.09;;;25.27;56.70
11648;BME280;5880;52.342;9.662;2023-09-12T09:58:17;100815.41;;;25.26;56.53
11648;BME280;5880;52.342;9.662;2023-09-12T10:00:44;100809.50;;;25.19;56.53
11648;BME280;5880;52.342;9.662;2023-09-12T10:03:11;100798.81;;;25.21;56.45
11648;BME280;5880;52.342;9.662;2023-09-12T10:05:39;100822.94;;;25.17;56.78
11648;BME280;5880;52.342;9.662;2023-09-12T10:08:07;100822.78;;;25.13;56.77
11648;BME280;5880;52.342;9.662;2023-09-12T10:10:38;100809.63;;;25.14;56.90
11648;BME280;5880;52.342;9.662;2023-09-12T10:13:06;100819.16;;;25.13;56.73
11648;BME280;5880;52.342;9.662;2023-09-12T10:15:36;100809.31;;;25.15;56.93
11648;BME280;5880;52.342;9.662;2023-09-12T10:18:09;100790.53;;;25.16;57.43
11648;BME280;5880;52.342;9.662;2023-09-12T10:20:43;100796.34;;;25.19;57.41
11648;BME280;5880;52.342;9.662;2023-09-12T10:24:04;100800.47;;;25.22;57.36
11648;BME280;5880;52.342;9.662;2023-09-12T10:26:13;100797.16;;;25.20;57.26
11648;BME280;5880;52.342;9.662;2023-09-12T10:28:43;100784.81;;;25.21;57.02
11648;BME280;5880;52.342;9.662;2023-09-12T10:31:12;100776.94;;;25.23;57.29
11648;BME280;5880;52.342;9.662;2023-09-12T10:33:39;100771.34;;;25.23;57.01
11648;BME280;5880;52.342;9.662;2023-09-12T10:36:08;100758.16;;;25.23;57.02
11648;BME280;5880;52.342;9.662;2023-09-12T10:38:42;100752.25;;;25.25;56.94
11648;BME280;5880;52.342;9.662;2023-09-12T10:41:12;100764.59;;;25.24;57.20
11648;BME280;5880;52.342;9.662;2023-09-12T10:43:41;100793.03;;;25.26;57.45
11648;BME280;5880;52.342;9.662;2023-09-12T10:46:08;100785.16;;;25.28;57.35
11648;BME280;5880;52.342;9.662;2023-09-12T10:48:37;100766.88;;;25.31;57.75
11648;BME280;5880;52.342;9.662;2023-09-12T10:51:07;100767.06;;;25.34;57.92
11648;BME280;5880;52.342;9.662;2023-09-12T10:53:35;100773.97;;;25.37;57.68
11648;BME280;5880;52.342;9.662;2023-09-12T11:01:37;100762.13;;;25.48;57.76
11648;BME280;5880;52.342;9.662;2023-09-12T11:06:50;100777.28;;;25.47;57.91
11648;BME280;5880;52.342;9.662;2023-09-12T11:09:23;100802.94;;;25.49;57.86
11648;BME280;5880;52.342;9.662;2023-09-12T11:11:55;100844.25;;;25.53;57.62
11648;BME280;5880;52.342;9.662;2023-09-12T11:14:21;100826.97;;;25.51;57.75
11648;BME280;5880;52.342;9.662;2023-09-12T11:19:52;100840.97;;;25.51;57.37
11648;BME280;5880;52.342;9.662;2023-09-12T11:22:22;100812.00;;;25.46;57.63
11648;BME280;5880;52.342;9.662;2023-09-12T11:24:49;100814.78;;;25.38;57.26
11648;BME280;5880;52.342;9.662;2023-09-12T11:27:15;100859.41;;;25.43;57.49
11648;BME280;5880;52.342;9.662;2023-09-12T11:29:42;100850.97;;;25.34;57.10
11648;BME280;5880;52.342;9.662;2023-09-12T11:32:08;100840.13;;;25.33;57.12
11648;BME280;5880;52.342;9.662;2023-09-12T11:34:44;100838.78;;;25.30;57.48
11648;BME280;5880;52.342;9.662;2023-09-12T11:37:23;100840.59;;;25.26;57.25
11648;BME280;5880;52.342;9.662;2023-09-12T11:39:50;100824.16;;;25.24;57.21
11648;BME280;5880;52.342;9.662;2023-09-12T11:42:18;100833.19;;;25.21;57.37
11648;BME280;5880;52.342;9.662;2023-09-12T11:44:44;100859.28;;;25.17;57.71
11648;BME280;5880;52.342;9.662;2023-09-12T11:47:12;100871.44;;;25.12;57.18
11648;BME280;5880;52.342;9.662;2023-09-12T11:49:40;100848.25;;;25.03;57.55
11648;BME280;5880;52.342;9.662;2023-09-12T11:52:15;100827.19;;;24.97;57.48
11648;BME280;5880;52.342;9.662;2023-09-12T11:54:45;100793.78;;;24.92;57.56
11648;BME280;5880;52.342;9.662;2023-09-12T11:57:13;100773.38;;;24.82;57.73
11648;BME280;5880;52.342;9.662;2023-09-12T11:59:44;100774.50;;;24.81;57.48
11648;BME280;5880;52.342;9.662;2023-09-12T12:02:17;100734.53;;;24.72;57.85
11648;BME280;5880;52.342;9.662;2023-09-12T12:04:44;100696.72;;;24.57;57.81
11648;BME280;5880;52.342;9.662;2023-09-12T12:07:11;100745.38;;;24.56;57.84
11648;BME280;5880;52.342;9.662;2023-09-12T12:09:36;100730.19;;;24.49;58.16
11648;BME280;5880;52.342;9.662;2023-09-12T12:12:13;100739.09;;;24.51;58.33
11648;BME280;5880;52.342;9.662;2023-09-12T12:14:41;100723.00;;;24.48;58.59
11648;BME280;5880;52.342;9.662;2023-09-12T12:17:11;100712.09;;;24.46;58.40
11648;BME280;5880;52.342;9.662;2023-09-12T12:19:38;100712.63;;;24.48;58.17
11648;BME280;5880;52.342;9.662;2023-09-12T12:22:06;100717.19;;;24.44;58.48
11648;BME280;5880;52.342;9.662;2023-09-12T12:24:45;100718.66;;;24.41;58.74
11648;BME280;5880;52.342;9.662;2023-09-12T12:27:11;100713.41;;;24.40;58.76
11648;BME280;5880;52.342;9.662;2023-09-12T12:29:38;100714.22;;;24.40;58.81
11648;BME280;5880;52.342;9.662;2023-09-12T12:32:08;100707.47;;;24.41;58.88
11648;BME280;5880;52.342;9.662;2023-09-12T12:34:35;100707.97;;;24.43;58.49
11648;BME280;5880;52.342;9.662;2023-09-12T12:37:01;100685.78;;;24.38;58.86
11648;BME280;5880;52.342;9.662;2023-09-12T12:39:27;100698.97;;;24.47;59.17
11648;BME280;5880;52.342;9.662;2023-09-12T12:41:53;100686.81;;;24.51;58.97
11648;BME280;5880;52.342;9.662;2023-09-12T12:44:20;100712.16;;;24.55;59.31
11648;BME280;5880;52.342;9.662;2023-09-12T12:46:50;100709.22;;;24.60;59.28
11648;BME280;5880;52.342;9.662;2023-09-12T12:49:18;100699.03;;;24.64;59.26
11648;BME280;5880;52.342;9.662;2023-09-12T12:51:45;100694.09;;;24.70;59.49
11648;BME280;5880;52.342;9.662;2023-09-12T12:54:11;100684.59;;;24.71;59.64
11648;BME280;5880;52.342;9.662;2023-09-12T12:56:38;100705.81;;;24.80;59.63
11648;BME280;5880;52.342;9.662;2023-09-12T12:59:07;100705.97;;;24.84;59.30
11648;BME280;5880;52.342;9.662;2023-09-12T13:01:36;100694.97;;;24.88;59.40
11648;BME280;5880;52.342;9.662;2023-09-12T13:04:05;100683.97;;;24.91;59.72
11648;BME280;5880;52.342;9.662;2023-09-12T13:06:31;100694.63;;;24.98;59.99
11648;BME280;5880;52.342;9.662;2023-09-12T13:09:02;100699.75;;;25.04;59.62
11648;BME280;5880;52.342;9.662;2023-09-12T13:11:32;100696.78;;;25.10;59.92
11648;BME280;5880;52.342;9.662;2023-09-12T13:14:01;100679.50;;;25.16;60.01
11648;BME280;5880;52.342;9.662;2023-09-12T13:16:28;100672.13;;;25.20;59.78